Time;durP1;ratioP1;P1;durP2;ratioP2;P2;SDS_P1;SDS_P2;PMS_P1;PMS_P2;Temp;Humidity;BMP_temperature;BMP_pressure;BME280_temperature;BME280_humidity;BME280_pressure;Samples;Min_cycle;Max_cycle;Signal;HPM_P1;HPM_P2
2023/10/07 00:02:18;;;;;;;6.28;3.90;;;;;;;12.23;100.00;101784.13;4996696;28;20037;-63
2023/10/07 00:04:44;;;;;;;9.50;4.65;;;;;;;12.18;100.00;101784.13;5007518;28;20042;-63
2023/10/07 00:07:13;;;;;;;10.82;4.80;;;;;;;12.15;100.00;101793.63;5017771;28;20042;-62
2023/10/07 00:09:46;;;;;;;8.50;4.32;;;;;;;12.13;100.00;101779.81;5011959;28;20575;-62
2023/10/07 00:12:15;;;;;;;10.32;4.35;;;;;;;12.09;100.00;101770.28;5016589;28;20030;-62
2023/10/07 00:14:42;;;;;;;9.52;5.10;;;;;;;12.05;100.00;101777.19;5023709;28;20022;-62
2023/10/07 00:17:16;;;;;;;8.20;4.95;;;;;;;12.00;100.00;101778.91;5018464;28;20045;-62
2023/10/07 00:19:41;;;;;;;13.73;4.60;;;;;;;11.90;100.00;101777.16;5020118;28;20037;-63
2023/10/07 00:22:13;;;;;;;11.65;4.55;;;;;;;11.78;100.00;101779.75;5018118;28;20051;-62
2023/10/07 00:24:43;;;;;;;9.50;4.63;;;;;;;11.71;100.00;101775.41;5010796;28;20455;-62
2023/10/07 00:27:26;;;;;;;8.23;4.68;;;;;;;11.67;100.00;101784.88;5019642;28;20033;-62
2023/10/07 00:29:54;;;;;;;8.77;4.20;;;;;;;11.70;100.00;101786.59;5014501;28;20109;-62
2023/10/07 00:32:31;;;;;;;6.05;4.63;;;;;;;11.70;100.00;101774.53;5016741;28;20037;-62
2023/10/07 00:35:00;;;;;;;9.68;5.20;;;;;;;11.74;100.00;101778.00;5021905;28;20040;-62
2023/10/07 00:37:26;;;;;;;14.45;5.35;;;;;;;11.78;100.00;101782.34;5023202;28;20059;-62
2023/10/07 00:39:52;;;;;;;8.50;4.60;;;;;;;11.78;100.00;101787.50;5011413;28;20555;-62
2023/10/07 00:42:19;;;;;;;8.23;4.43;;;;;;;11.79;100.00;101787.50;5021617;28;20044;-62
2023/10/07 00:44:47;;;;;;;8.15;4.85;;;;;;;11.79;100.00;101792.69;5019337;28;20269;-62
2023/10/07 00:47:13;;;;;;;8.70;4.40;;;;;;;11.79;100.00;101791.81;5017305;28;20069;-64
2023/10/07 00:49:41;;;;;;;8.55;4.30;;;;;;;11.78;100.00;101790.94;5024724;28;20997;-62
2023/10/07 00:52:22;;;;;;;8.65;4.22;;;;;;;11.78;100.00;101790.09;5012402;28;20073;-62
2023/10/07 00:57:34;;;;;;;11.02;5.18;;;;;;;11.70;100.00;101787.47;5016407;28;20038;-62
2023/10/07 01:00:35;;;;;;;6.13;4.00;;;;;;;11.65;100.00;101783.16;5016027;28;20067;-62
2023/10/07 01:02:51;;;;;;;11.57;6.07;;;;;;;11.61;100.00;101783.97;5010347;28;20042;-69
2023/10/07 01:05:27;;;;;;;12.48;5.40;;;;;;;11.60;100.00;101777.09;5017450;28;20037;-68
2023/10/07 01:07:55;;;;;;;11.18;4.80;;;;;;;11.60;100.00;101772.78;5020222;28;20111;-68
2023/10/07 01:10:31;;;;;;;12.40;4.80;;;;;;;11.57;100.00;101772.78;5023275;28;20654;-68
2023/10/07 01:13:02;;;;;;;9.73;4.85;;;;;;;11.55;100.00;101776.19;5011895;28;20049;-69
2023/10/07 01:15:30;;;;;;;8.45;4.30;;;;;;;11.52;100.00;101776.16;5018318;28;20080;-68
2023/10/07 01:18:06;;;;;;;12.07;4.95;;;;;;;11.52;100.00;101773.59;5014803;28;20596;-69
2023/10/07 01:20:38;;;;;;;7.32;4.10;;;;;;;11.54;100.00;101775.34;5014919;28;20044;-68
2023/10/07 01:23:04;;;;;;;8.65;4.72;;;;;;;11.55;100.00;101774.47;4998895;28;20500;-68
2023/10/07 01:25:32;;;;;;;12.18;5.03;;;;;;;11.57;100.00;101770.19;4995939;28;20104;-68
2023/10/07 01:28:00;;;;;;;10.35;4.57;;;;;;;11.58;100.00;101769.31;4993443;28;20153;-69
2023/10/07 01:30:26;;;;;;;7.28;3.88;;;;;;;11.58;100.00;101769.31;4990337;28;20836;-69
2023/10/07 01:32:57;;;;;;;8.73;4.40;;;;;;;11.59;100.00;101765.00;4993549;28;20069;-69
2023/10/07 01:35:25;;;;;;;9.82;4.82;;;;;;;11.62;100.00;101757.22;4994629;28;20061;-68
2023/10/07 01:38:07;;;;;;;11.25;4.38;;;;;;;11.69;100.00;101762.41;4997537;28;20056;-68
2023/10/07 01:41:06;;;;;;;9.95;4.63;;;;;;;11.80;100.00;101757.28;5011189;28;20432;-68
2023/10/07 01:43:24;;;;;;;8.60;4.70;;;;;;;11.89;100.00;101758.19;5017022;28;20060;-68
2023/10/07 01:45:52;;;;;;;11.52;4.50;;;;;;;11.97;100.00;101759.91;5019492;28;20945;-68
2023/10/07 01:48:18;;;;;;;8.32;4.25;;;;;;;12.08;100.00;101751.28;5016392;28;20114;-68
2023/10/07 01:50:45;;;;;;;9.05;4.65;;;;;;;12.10;100.00;101752.16;5013501;28;20041;-68
2023/10/07 01:53:11;;;;;;;9.73;4.75;;;;;;;12.13;100.00;101748.72;5016870;28;20049;-69
2023/10/07 01:55:44;;;;;;;8.07;4.60;;;;;;;12.13;100.00;101749.59;5018975;28;21176;-59
2023/10/07 01:58:14;;;;;;;8.48;4.13;;;;;;;12.11;100.00;101748.69;5012275;28;20398;-60
2023/10/07 02:00:51;;;;;;;7.80;3.97;;;;;;;12.08;100.00;101748.69;5016316;28;20052;-60
2023/10/07 02:03:21;;;;;;;8.60;4.72;;;;;;;12.07;100.00;101754.75;5017653;28;20171;-60
2023/10/07 02:05:48;;;;;;;7.38;3.83;;;;;;;12.08;100.00;101745.25;5019682;28;20038;-60
2023/10/07 02:08:20;;;;;;;8.10;4.60;;;;;;;12.06;100.00;101746.97;5022558;28;20116;-61
2023/10/07 02:10:47;;;;;;;6.50;4.43;;;;;;;12.05;100.00;101746.09;5024081;28;20037;-60
2023/10/07 02:13:20;;;;;;;9.20;5.30;;;;;;;12.06;100.00;101741.78;5022494;28;20129;-59
2023/10/07 02:15:47;;;;;;;8.85;4.60;;;;;;;12.05;100.00;101742.66;5024147;28;20029;-60
2023/10/07 02:18:18;;;;;;;12.27;5.35;;;;;;;12.04;100.00;101741.78;5018908;28;20739;-60
2023/10/07 02:21:07;;;;;;;11.25;4.97;;;;;;;12.06;100.00;101742.66;5022237;28;20029;-59
2023/10/07 02:23:45;;;;;;;7.28;4.45;;;;;;;12.07;100.00;101743.53;5025158;28;20387;-69
2023/10/07 02:26:19;;;;;;;10.90;5.07;;;;;;;12.08;100.00;101738.31;5022177;28;20033;-68
2023/10/07 02:28:52;;;;;;;8.90;4.38;;;;;;;12.10;100.00;101735.75;5021759;28;20084;-69
2023/10/07 02:31:22;;;;;;;9.10;4.82;;;;;;;12.10;100.00;101739.22;5009218;28;20835;-68
2023/10/07 02:33:54;;;;;;;7.85;4.88;;;;;;;12.10;100.00;101736.63;5002342;28;20084;-68
2023/10/07 02:36:38;;;;;;;7.32;4.50;;;;;;;12.10;100.00;101748.72;5002543;28;20040;-68
2023/10/07 02:39:18;;;;;;;9.32;4.65;;;;;;;12.09;100.00;101746.97;5001266;28;20025;-69
2023/10/07 02:41:47;;;;;;;8.57;4.60;;;;;;;12.06;100.00;101747.84;5001596;28;20125;-68
2023/10/07 02:44:19;;;;;;;10.27;4.72;;;;;;;12.05;100.00;101743.50;4998907;28;20856;-63
2023/10/07 02:46:52;;;;;;;9.00;4.97;;;;;;;12.04;100.00;101746.09;4998872;28;20153;-62
2023/10/07 02:49:20;;;;;;;9.32;4.55;;;;;;;12.01;100.00;101748.69;5000760;28;20038;-62
2023/10/07 02:51:55;;;;;;;7.75;4.75;;;;;;;12.01;100.00;101751.28;4999488;28;20741;-61
2023/10/07 02:54:21;;;;;;;9.93;4.28;;;;;;;11.98;100.00;101751.28;5001447;28;20053;-62
2023/10/07 02:57:22;;;;;;;10.23;4.60;;;;;;;11.96;100.00;101753.00;5003830;28;20060;-62
2023/10/07 02:59:50;;;;;;;8.05;4.07;;;;;;;11.93;100.00;101753.84;5001736;28;20054;-62
2023/10/07 03:07:41;;;;;;;;;;;;;;;11.92;100.00;101757.31;4997637;28;20441;-62
2023/10/07 03:10:29;;;;;;;13.00;4.70;;;;;;;11.92;100.00;101748.69;4997131;28;21262;-62
2023/10/07 03:12:58;;;;;;;10.77;5.07;;;;;;;11.92;100.00;101743.50;5005040;28;20037;-62
2023/10/07 03:15:39;;;;;;;11.45;6.03;;;;;;;11.92;100.00;101751.25;5020340;28;22702;-62
2023/10/07 03:18:06;;;;;;;9.07;5.05;;;;;;;11.91;100.00;101742.63;5021157;28;20033;-62
2023/10/07 03:20:45;;;;;;;11.27;5.47;;;;;;;11.90;100.00;101735.69;5033845;28;20033;-62
2023/10/07 03:23:14;;;;;;;13.30;6.53;;;;;;;11.92;100.00;101733.13;5016162;28;20045;-62
2023/10/07 03:28:51;;;;;;;12.15;6.00;;;;;;;11.96;100.00;101751.25;5023480;28;20448;-62
2023/10/07 03:31:19;;;;;;;11.27;5.18;;;;;;;11.97;100.00;101745.22;5003541;28;20128;-62
2023/10/07 03:33:48;;;;;;;10.57;5.53;;;;;;;11.98;100.00;101746.09;4994091;28;20887;-62
2023/10/07 03:39:26;;;;;;;10.52;5.70;;;;;;;12.00;100.00;101752.13;4996115;28;20072;-61
2023/10/07 03:41:55;;;;;;;11.32;5.93;;;;;;;12.00;100.00;101753.00;5012315;28;20041;-62
2023/10/07 03:44:27;;;;;;;14.68;6.25;;;;;;;12.06;100.00;101754.75;4995459;28;20033;-63
2023/10/07 03:46:54;;;;;;;10.90;5.80;;;;;;;12.11;100.00;101760.81;4995707;28;20033;-62
2023/10/07 03:49:23;;;;;;;13.10;5.45;;;;;;;12.16;100.00;101753.91;4995818;28;20035;-62
2023/10/07 03:52:03;;;;;;;9.38;4.60;;;;;;;12.20;100.00;101745.25;4996343;28;20037;-61
2023/10/07 03:54:31;;;;;;;12.95;4.65;;;;;;;12.22;100.00;101741.81;4998366;28;20046;-62
2023/10/07 03:57:00;;;;;;;9.45;4.72;;;;;;;12.29;100.00;101747.84;4993707;28;20097;-62
2023/10/07 03:59:27;;;;;;;10.02;4.95;;;;;;;12.32;100.00;101747.84;4997211;28;20045;-62
2023/10/07 04:01:53;;;;;;;9.10;4.68;;;;;;;12.33;100.00;101742.66;4994657;28;20029;-62
2023/10/07 04:04:22;;;;;;;12.00;4.97;;;;;;;12.35;100.00;101738.34;4993337;28;20038;-62
2023/10/07 04:06:48;;;;;;;8.82;4.50;;;;;;;12.36;100.00;101737.47;4993800;28;20049;-62
2023/10/07 04:09:14;;;;;;;7.75;3.78;;;;;;;12.38;100.00;101733.16;4992075;28;20030;-62
2023/10/07 04:11:48;;;;;;;9.18;4.72;;;;;;;12.41;100.00;101737.47;4995839;28;20029;-62
2023/10/07 04:14:22;;;;;;;8.23;4.30;;;;;;;12.44;100.00;101745.25;4992164;28;20038;-62
2023/10/07 04:16:50;;;;;;;10.15;4.72;;;;;;;12.48;100.00;101731.44;4995529;28;20044;-63
2023/10/07 04:21:41;;;;;;;8.00;3.83;;;;;;;12.52;100.00;101740.94;4994444;28;20037;-62
2023/10/07 04:24:10;;;;;;;5.90;3.65;;;;;;;12.55;100.00;101735.75;4994529;28;20045;-62
2023/10/07 04:26:40;;;;;;;7.15;4.20;;;;;;;12.57;100.00;101736.59;4996594;28;20743;-62
2023/10/07 04:29:14;;;;;;;9.48;4.07;;;;;;;12.59;100.00;101742.66;4991631;28;20046;-62
2023/10/07 04:31:53;;;;;;;9.50;4.30;;;;;;;12.64;100.00;101727.09;4994190;28;20026;-62
2023/10/07 04:34:22;;;;;;;9.85;4.38;;;;;;;12.66;100.00;101722.75;4993677;28;20502;-62
2023/10/07 04:39:31;;;;;;;8.48;4.25;;;;;;;12.73;100.00;101711.50;4995959;28;20045;-60
2023/10/07 04:42:03;;;;;;;7.72;4.40;;;;;;;12.77;100.00;101713.22;4992515;28;20626;-60
2023/10/07 04:52:30;;;;;;;9.05;4.10;;;;;;;12.92;100.00;101724.44;4996420;28;20128;-63
2023/10/07 04:54:58;;;;;;;10.43;4.93;;;;;;;12.96;100.00;101720.97;4996876;28;20048;-63
2023/10/07 04:57:44;;;;;;;7.15;4.28;;;;;;;13.01;100.00;101718.38;4992339;28;20050;-62
2023/10/07 05:02:59;;;;;;;7.78;4.35;;;;;;;13.10;100.00;101717.47;5004761;28;20516;-60
2023/10/07 05:05:33;;;;;;;10.48;4.40;;;;;;;13.14;100.00;101716.59;4992808;28;20038;-60
2023/10/07 05:08:10;;;;;;;9.88;4.18;;;;;;;13.16;100.00;101718.31;4989986;28;20042;-60
2023/10/07 05:10:41;;;;;;;9.13;4.43;;;;;;;13.18;100.00;101711.38;4993693;28;20044;-62
2023/10/07 05:13:07;;;;;;;9.10;4.57;;;;;;;13.20;100.00;101722.66;4992214;28;20038;-60
2023/10/07 05:15:34;;;;;;;11.15;4.97;;;;;;;13.23;100.00;101713.97;4990987;28;20037;-60
2023/10/07 05:18:01;;;;;;;11.55;4.20;;;;;;;13.26;100.00;101714.84;4992630;28;20026;-60
2023/10/07 05:20:28;;;;;;;8.50;4.82;;;;;;;13.28;100.00;101713.09;4993799;28;20053;-60
2023/10/07 05:22:54;;;;;;;12.10;4.22;;;;;;;13.30;100.00;101708.75;4993257;28;20030;-59
2023/10/07 05:25:21;;;;;;;6.13;3.83;;;;;;;13.33;100.00;101713.91;4990603;28;20041;-60
2023/10/07 05:27:47;;;;;;;8.15;4.22;;;;;;;13.35;100.00;101711.34;4996435;28;20320;-60
2023/10/07 05:30:16;;;;;;;9.13;4.50;;;;;;;13.38;100.00;101703.53;4992502;28;20125;-68
2023/10/07 05:32:41;;;;;;;9.23;4.10;;;;;;;13.39;100.00;101703.50;4990506;28;20058;-69
2023/10/07 05:35:08;;;;;;;7.53;4.13;;;;;;;13.43;100.00;101701.75;4994196;28;20412;-68
2023/10/07 05:37:33;;;;;;;7.60;4.18;;;;;;;13.44;100.00;101699.13;4995350;28;20512;-68
2023/10/07 05:39:59;;;;;;;8.15;3.75;;;;;;;13.47;100.00;101706.09;4996925;28;20042;-67
2023/10/07 05:42:25;;;;;;;10.65;4.05;;;;;;;13.49;100.00;101707.78;4995422;28;20049;-69
2023/10/07 05:44:52;;;;;;;9.50;4.93;;;;;;;13.49;100.00;101700.00;4995913;28;20030;-68
2023/10/07 05:47:18;;;;;;;6.53;4.00;;;;;;;13.50;100.00;101698.28;4994119;28;20525;-69
2023/10/07 05:49:43;;;;;;;10.02;4.18;;;;;;;13.49;100.00;101705.19;4993718;28;20046;-69
2023/10/07 05:52:09;;;;;;;9.85;4.13;;;;;;;13.48;100.00;101695.66;5003773;28;21647;-68
2023/10/07 05:54:35;;;;;;;12.48;5.00;;;;;;;13.48;100.00;101700.88;5007915;28;20066;-69
2023/10/07 05:57:06;;;;;;;10.77;4.50;;;;;;;13.49;100.00;101705.19;4999767;28;20185;-69
2023/10/07 05:59:34;;;;;;;8.40;4.10;;;;;;;13.48;100.00;101705.19;5018069;28;20041;-69
2023/10/07 06:02:01;;;;;;;9.52;4.22;;;;;;;13.48;100.00;101700.00;5015568;28;20595;-69
2023/10/07 06:04:28;;;;;;;10.52;5.18;;;;;;;13.50;100.00;101698.28;5003665;28;20046;-68
2023/10/07 06:06:53;;;;;;;6.85;3.45;;;;;;;13.50;100.00;101701.72;4999717;28;20049;-68
2023/10/07 06:09:21;;;;;;;6.18;4.00;;;;;;;13.50;100.00;101704.31;4997720;28;20033;-68
2023/10/07 06:11:48;;;;;;;8.52;3.90;;;;;;;13.51;100.00;101699.97;4993913;28;20069;-69
2023/10/07 06:14:14;;;;;;;8.88;4.15;;;;;;;13.53;100.00;101700.84;4992280;28;20081;-68
2023/10/07 06:16:40;;;;;;;8.80;4.47;;;;;;;13.57;100.00;101705.13;4994043;28;20075;-69
2023/10/07 06:19:07;;;;;;;6.93;3.83;;;;;;;13.62;100.00;101708.59;4992540;28;20492;-69
2023/10/07 06:21:32;;;;;;;9.10;3.83;;;;;;;13.67;100.00;101712.03;4994239;28;20123;-68
2023/10/07 06:23:58;;;;;;;9.23;4.35;;;;;;;13.74;100.00;101718.88;4999013;28;20026;-68
2023/10/07 06:26:24;;;;;;;6.05;3.78;;;;;;;13.82;100.00;101711.06;5014493;28;20038;-69
2023/10/07 06:28:50;;;;;;;5.07;3.72;;;;;;;13.87;100.00;101715.34;5013105;28;20069;-69
2023/10/07 06:31:31;;;;;;;9.93;3.92;;;;;;;13.93;100.00;101712.72;5010660;28;20046;-69
2023/10/07 06:34:00;;;;;;;6.57;4.60;;;;;;;14.02;100.00;101716.97;5011864;28;20113;-69
2023/10/07 06:36:30;;;;;;;9.93;3.83;;;;;;;14.09;100.00;101727.34;5013361;28;20042;-69
2023/10/07 06:38:58;;;;;;;10.35;4.85;;;;;;;14.19;100.00;101729.88;4994670;28;20033;-68
2023/10/07 06:41:25;;;;;;;8.13;4.43;;;;;;;14.29;100.00;101727.16;4998474;28;20037;-69
2023/10/07 06:43:53;;;;;;;8.13;4.35;;;;;;;14.41;100.00;101727.09;4995146;28;20049;-68
2023/10/07 06:46:21;;;;;;;7.82;4.40;;;;;;;14.48;100.00;101736.56;4992920;28;20042;-68
2023/10/07 06:48:48;;;;;;;7.78;4.22;;;;;;;14.56;98.99;101739.09;4995826;28;20133;-68
2023/10/07 06:51:14;;;;;;;7.43;4.25;;;;;;;14.62;98.85;101728.63;4990301;28;20065;-68
2023/10/07 06:53:42;;;;;;;7.22;4.10;;;;;;;14.69;98.42;101740.72;4994960;28;20037;-68
2023/10/07 06:56:21;;;;;;;7.57;4.00;;;;;;;14.77;98.12;101738.03;5015846;28;20048;-64
2023/10/07 06:58:54;;;;;;;8.50;4.35;;;;;;;14.83;98.06;101743.19;5014936;28;20753;-64
2023/10/07 07:01:51;;;;;;;6.93;4.07;;;;;;;14.93;97.66;101750.88;5015931;28;20036;-64
2023/10/07 07:04:19;;;;;;;6.78;3.60;;;;;;;15.03;97.35;101754.25;5016686;28;20068;-63
2023/10/07 07:06:46;;;;;;;9.57;4.40;;;;;;;15.11;97.54;101763.69;5016842;28;20041;-63
2023/10/07 07:12:09;;;;;;;7.75;4.28;;;;;;;15.27;96.64;101753.09;5018581;28;20045;-63
2023/10/07 07:14:35;;;;;;;6.03;3.75;;;;;;;15.36;96.25;101759.06;5015455;28;20510;-63
2023/10/07 07:22:44;;;;;;;9.15;4.55;;;;;;;15.54;95.90;101758.84;5011213;28;20476;-63
2023/10/07 07:25:12;;;;;;;7.50;3.42;;;;;;;15.59;95.27;101763.97;5017297;28;20102;-63
2023/10/07 07:27:52;;;;;;;6.40;3.85;;;;;;;15.67;94.77;101767.41;5017188;28;20582;-64
2023/10/07 07:30:31;;;;;;;5.93;3.67;;;;;;;15.73;94.35;101756.91;5013393;28;20029;-63
2023/10/07 07:32:59;;;;;;;5.40;3.67;;;;;;;15.82;94.52;101756.75;5015672;28;20028;-63
2023/10/07 07:35:44;;;;;;;6.70;4.25;;;;;;;15.90;94.30;101767.94;5017950;28;20041;-64
2023/10/07 07:38:22;;;;;;;9.52;4.90;;;;;;;16.02;93.39;101765.16;5012899;28;20042;-62
2023/10/07 07:40:49;;;;;;;9.23;4.22;;;;;;;16.18;93.51;101771.84;5024084;28;20411;-64
2023/10/07 07:43:15;;;;;;;7.38;4.03;;;;;;;16.36;92.69;101769.84;5016179;28;20038;-63
2023/10/07 07:45:41;;;;;;;7.35;3.85;;;;;;;16.50;92.80;101753.09;5017786;28;20559;-63
2023/10/07 07:48:07;;;;;;;6.22;3.63;;;;;;;16.67;90.86;101753.66;5014284;28;20069;-62
2023/10/07 07:50:35;;;;;;;6.28;3.63;;;;;;;16.79;90.96;101744.75;5015848;28;20026;-63
2023/10/07 07:53:07;;;;;;;8.38;3.85;;;;;;;16.86;90.77;101746.34;5015177;28;20522;-64
2023/10/07 07:55:44;;;;;;;5.78;3.25;;;;;;;16.91;90.63;101744.53;5011549;28;20064;-63
2023/10/07 07:58:10;;;;;;;7.13;3.50;;;;;;;16.98;90.28;101753.97;5014269;28;20654;-64
2023/10/07 08:00:44;;;;;;;5.25;3.60;;;;;;;17.05;90.45;101752.97;5018422;28;20045;-64
2023/10/07 08:03:10;;;;;;;6.75;3.42;;;;;;;17.12;90.08;101748.50;5015404;28;20857;-64
2023/10/07 08:05:39;;;;;;;8.40;3.95;;;;;;;17.19;89.50;101748.31;5015399;28;20026;-63
2023/10/07 08:08:09;;;;;;;4.90;3.15;;;;;;;17.28;89.37;101748.16;5020022;28;20076;-63
2023/10/07 08:10:35;;;;;;;9.35;3.80;;;;;;;17.34;89.00;101760.22;5015084;28;20072;-64
2023/10/07 08:13:01;;;;;;;8.15;3.33;;;;;;;17.39;88.48;101751.38;5012797;28;20657;-64
2023/10/07 08:15:38;;;;;;;8.38;3.65;;;;;;;17.45;88.04;101745.19;5010339;28;20029;-63
2023/10/07 08:18:06;;;;;;;6.18;3.60;;;;;;;17.53;88.70;101752.88;5013786;28;20137;-63
2023/10/07 08:20:40;;;;;;;4.82;3.00;;;;;;;17.60;88.70;101750.06;5018394;28;20018;-63
2023/10/07 08:23:21;;;;;;;5.07;3.03;;;;;;;17.67;88.38;101750.81;5013395;28;20566;-63
2023/10/07 08:25:46;;;;;;;9.43;4.10;;;;;;;17.76;88.42;101754.09;5008444;28;20495;-63
2023/10/07 08:28:19;;;;;;;6.53;2.97;;;;;;;17.80;87.19;101731.34;5014876;28;20049;-64
2023/10/07 08:30:47;;;;;;;9.32;3.67;;;;;;;17.86;87.57;101739.09;5011047;28;20030;-62
2023/10/07 08:33:14;;;;;;;5.85;3.10;;;;;;;17.92;87.69;101742.44;5012962;28;20072;-68
2023/10/07 08:35:43;;;;;;;6.18;2.97;;;;;;;17.97;86.89;101737.94;5022852;28;20478;-63
2023/10/07 08:41:04;;;;;;;8.15;3.42;;;;;;;18.11;87.51;101755.06;5014034;28;20111;-69
2023/10/07 08:43:43;;;;;;;10.45;3.83;;;;;;;18.15;86.93;101754.09;5016666;28;20041;-60
2023/10/07 08:46:11;;;;;;;4.70;2.75;;;;;;;18.15;87.27;101761.94;5013909;28;20114;-60
2023/10/07 08:48:39;;;;;;;9.02;3.38;;;;;;;18.11;87.22;101776.84;5016244;28;20051;-60
2023/10/07 08:51:14;;;;;;;3.95;2.22;;;;;;;18.04;87.35;101771.81;5023181;28;20467;-61
2023/10/07 08:53:40;;;;;;;;;;;;;;;17.99;87.78;101773.69;5023048;28;20064;-60
2023/10/07 08:56:13;;;;;;;5.75;2.78;;;;;;;17.95;88.15;101765.03;5013133;28;20641;-60
2023/10/07 08:58:41;;;;;;;4.78;2.63;;;;;;;17.93;88.63;101758.97;5012874;28;20056;-60
2023/10/07 09:01:12;;;;;;;7.90;3.13;;;;;;;17.94;88.88;101755.47;5011343;28;20096;-60
2023/10/07 09:03:39;;;;;;;5.18;2.63;;;;;;;18.01;88.48;101749.22;5013485;28;20308;-60
2023/10/07 09:06:09;;;;;;;5.30;2.70;;;;;;;18.09;88.45;101757.72;5013883;28;20096;-60
2023/10/07 09:08:35;;;;;;;5.28;2.90;;;;;;;18.16;87.79;101754.09;5012097;28;20029;-60
2023/10/07 09:11:03;;;;;;;5.60;2.70;;;;;;;18.25;87.69;101748.63;5009824;28;20034;-60
2023/10/07 09:13:31;;;;;;;4.40;2.55;;;;;;;18.38;87.03;101742.19;5019051;28;20041;-60
2023/10/07 09:16:03;;;;;;;6.60;2.65;;;;;;;18.52;85.98;101740.06;5016767;28;20029;-60
2023/10/07 09:18:31;;;;;;;4.20;2.25;;;;;;;18.68;85.32;101734.44;5021825;28;20129;-60
2023/10/07 09:20:57;;;;;;;4.03;2.58;;;;;;;18.87;84.73;101738.31;5024085;28;20121;-61
2023/10/07 09:23:33;;;;;;;5.35;2.33;;;;;;;19.03;83.35;101731.75;5021571;28;20037;-60
2023/10/07 09:26:14;;;;;;;5.32;2.50;;;;;;;19.05;82.69;101732.59;5016022;28;20144;-60
2023/10/07 09:28:39;;;;;;;4.28;2.38;;;;;;;19.03;82.95;101734.38;5023374;28;20056;-60
2023/10/07 09:31:06;;;;;;;5.20;2.45;;;;;;;18.94;83.49;101740.72;5003719;28;20038;-60
2023/10/07 09:33:36;;;;;;;4.95;2.30;;;;;;;18.83;84.11;101748.00;4995274;28;20579;-60
2023/10/07 09:38:48;;;;;;;4.45;2.63;;;;;;;18.79;82.81;101742.88;4993577;28;20069;-60
2023/10/07 09:43:48;;;;;;;;;;;;;;;18.84;83.48;101741.91;4995892;28;20030;-60
2023/10/07 09:46:24;;;;;;;5.28;2.42;;;;;;;18.86;82.54;101736.59;4995555;28;19925;-60
2023/10/07 09:48:51;;;;;;;7.43;2.60;;;;;;;18.96;82.22;101751.19;5002455;28;20792;-60
2023/10/07 09:51:28;;;;;;;6.07;2.53;;;;;;;19.02;81.21;101733.53;5012986;28;20040;-60
2023/10/07 09:54:27;;;;;;;5.13;2.75;;;;;;;19.10;80.64;101732.44;4993857;28;20088;-60
2023/10/07 09:57:14;;;;;;;7.07;2.45;;;;;;;19.17;79.95;101726.13;4995556;28;20053;-60
2023/10/07 10:03:12;;;;;;;6.63;3.03;;;;;;;19.30;80.08;101730.09;4994039;28;20495;-60
2023/10/07 10:06:07;;;;;;;6.22;2.88;;;;;;;19.35;79.30;101725.63;5012140;28;20191;-60
2023/10/07 10:08:44;;;;;;;6.15;2.40;;;;;;;19.46;79.83;101734.00;5013095;28;20052;-60
2023/10/07 10:11:30;;;;;;;6.97;2.95;;;;;;;19.52;79.46;101732.06;5000315;28;20046;-60
2023/10/07 10:14:09;;;;;;;5.78;2.88;;;;;;;19.62;78.48;101732.66;5010564;28;20030;-60
2023/10/07 10:16:44;;;;;;;7.75;2.53;;;;;;;19.73;76.49;101717.44;5002187;28;20042;-61
2023/10/07 10:19:44;;;;;;;4.72;2.70;;;;;;;19.85;76.15;101708.38;5004353;28;20057;-60
2023/10/07 10:22:10;;;;;;;7.25;2.97;;;;;;;19.97;76.23;101703.59;5015386;28;20041;-60
2023/10/07 10:24:42;;;;;;;6.35;2.42;;;;;;;20.06;75.65;101695.41;5007868;28;20828;-60
2023/10/07 10:27:13;;;;;;;5.35;2.88;;;;;;;20.16;75.00;101686.31;4997623;28;20030;-60
2023/10/07 10:30:03;;;;;;;4.55;2.55;;;;;;;20.22;74.66;101680.00;5000835;28;20033;-60
2023/10/07 10:32:29;;;;;;;5.88;2.90;;;;;;;20.30;74.13;101664.88;4998572;28;20097;-60
2023/10/07 10:34:59;;;;;;;7.18;3.28;;;;;;;20.35;73.76;101664.69;5013040;28;20804;-60
2023/10/07 10:37:26;;;;;;;7.00;2.72;;;;;;;20.39;73.68;101668.94;5005250;28;20037;-60
2023/10/07 10:39:53;;;;;;;6.25;3.45;;;;;;;20.40;74.50;101673.25;4998401;28;20038;-60
2023/10/07 10:42:22;;;;;;;5.60;2.67;;;;;;;20.33;73.88;101675.28;4997942;28;20615;-60
2023/10/07 10:44:48;;;;;;;5.07;2.55;;;;;;;20.32;73.71;101668.28;4995000;28;20048;-60
2023/10/07 10:47:18;;;;;;;6.22;2.70;;;;;;;20.34;74.33;101673.47;4993408;28;20072;-68
2023/10/07 10:49:44;;;;;;;5.53;2.85;;;;;;;20.35;73.72;101670.81;4997995;28;20068;-69
2023/10/07 10:52:11;;;;;;;7.93;2.70;;;;;;;20.34;74.12;101676.97;5000546;28;20097;-69
2023/10/07 10:54:39;;;;;;;4.72;2.08;;;;;;;20.38;73.34;101665.44;4998704;28;20052;-69
2023/10/07 10:57:07;;;;;;;7.20;3.55;;;;;;;20.44;72.98;101646.84;5001246;28;20069;-70
2023/10/07 10:59:43;;;;;;;6.00;2.90;;;;;;;20.56;72.88;101653.44;5002227;28;20022;-68
2023/10/07 11:02:17;;;;;;;4.50;2.35;;;;;;;20.67;72.73;101648.66;4999710;28;20057;-69
2023/10/07 11:04:54;;;;;;;5.15;2.55;;;;;;;20.82;70.50;101618.38;4998516;28;20069;-69
2023/10/07 11:07:20;;;;;;;7.35;2.80;;;;;;;20.90;70.30;101622.41;4998488;28;20034;-68
2023/10/07 11:09:51;;;;;;;6.70;3.08;;;;;;;20.99;69.75;101614.19;4990116;28;20049;-69
2023/10/07 11:12:17;;;;;;;5.65;2.60;;;;;;;21.09;69.88;101620.84;4993684;28;20037;-68
2023/10/07 11:14:47;;;;;;;4.75;2.30;;;;;;;21.18;67.20;101577.53;4995890;28;20917;-69
2023/10/07 11:17:15;;;;;;;4.80;2.33;;;;;;;21.24;67.36;101596.56;4990629;28;20835;-69
2023/10/07 11:19:42;;;;;;;5.20;2.97;;;;;;;21.28;66.44;101586.81;5017160;28;20038;-69
2023/10/07 11:22:12;;;;;;;5.95;2.72;;;;;;;21.32;66.63;101585.75;5015476;28;20034;-69
2023/10/07 11:24:39;;;;;;;8.38;2.55;;;;;;;21.39;66.58;101584.59;5019963;28;20091;-69
2023/10/07 11:27:08;;;;;;;5.05;2.50;;;;;;;21.45;66.24;101586.13;5012457;28;20025;-67
2023/10/07 11:29:35;;;;;;;4.80;2.55;;;;;;;21.51;65.66;101572.72;5012438;28;20037;-69
2023/10/07 11:32:02;;;;;;;6.22;2.50;;;;;;;21.54;67.14;101605.03;5012340;28;20121;-63
2023/10/07 11:34:33;;;;;;;4.93;2.28;;;;;;;21.61;65.88;101584.63;5014533;28;20037;-62
2023/10/07 11:37:13;;;;;;;3.53;2.05;;;;;;;21.66;65.61;101572.13;5015100;28;20049;-62
2023/10/07 11:39:45;;;;;;;4.70;2.30;;;;;;;21.70;65.33;101561.38;5012739;28;21512;-63
2023/10/07 11:42:14;;;;;;;4.93;2.58;;;;;;;21.80;65.72;101572.41;5016370;28;20051;-63
2023/10/07 11:44:47;;;;;;;4.13;2.53;;;;;;;21.91;65.79;101575.44;5014518;28;20199;-63
2023/10/07 11:47:15;;;;;;;5.30;2.47;;;;;;;21.98;65.42;101570.75;5013220;28;20068;-62
2023/10/07 11:49:41;;;;;;;4.65;2.20;;;;;;;22.07;65.24;101565.97;5012669;28;20777;-62
2023/10/07 11:52:06;;;;;;;5.32;2.40;;;;;;;22.15;65.28;101570.88;5012726;28;20038;-63
2023/10/07 11:54:37;;;;;;;3.97;2.10;;;;;;;22.23;64.79;101559.09;5011521;28;20037;-63
2023/10/07 11:57:05;;;;;;;5.07;2.40;;;;;;;22.31;64.69;101564.91;5010806;28;20038;-63
2023/10/07 11:59:41;;;;;;;6.50;2.58;;;;;;;22.37;64.43;101550.59;5013007;28;20152;-62
2023/10/07 12:02:09;;;;;;;3.83;1.60;;;;;;;22.44;64.54;101559.97;5009219;28;20721;-62
2023/10/07 12:04:39;;;;;;;5.93;2.72;;;;;;;22.49;63.45;101541.31;5011087;28;20053;-62
2023/10/07 12:07:08;;;;;;;4.75;2.10;;;;;;;22.49;64.28;101552.72;5011671;28;20136;-62
2023/10/07 12:09:34;;;;;;;3.55;2.10;;;;;;;22.46;64.26;101555.50;5010917;28;20041;-63
2023/10/07 12:12:02;;;;;;;3.63;2.03;;;;;;;22.54;64.11;101557.75;5012312;28;20033;-64
2023/10/07 12:14:28;;;;;;;3.97;1.90;;;;;;;22.61;63.71;101544.25;5014550;28;20038;-64
2023/10/07 12:16:55;;;;;;;5.03;1.98;;;;;;;22.75;61.58;101498.81;5014894;28;20054;-63
2023/10/07 12:19:21;;;;;;;6.18;2.40;;;;;;;22.83;62.27;101510.69;5011880;28;20780;-63
2023/10/07 12:21:47;;;;;;;3.63;1.75;;;;;;;22.95;60.74;101487.34;5016369;28;20032;-60
2023/10/07 12:24:14;;;;;;;3.63;1.70;;;;;;;23.05;59.99;101484.16;5011947;28;20041;-60
2023/10/07 12:26:39;;;;;;;3.80;1.80;;;;;;;23.22;59.70;101478.09;5021445;28;20029;-60